sensor_id;sensor_type;location;lat;lon;timestamp;temperature;humidity
65573;SHT30;52214;50.940;13.996;2023-03-14T00:01:57;8.02;94.00
65573;SHT30;52214;50.940;13.996;2023-03-14T00:04:23;8.02;93.99
65573;SHT30;52214;50.940;13.996;2023-03-14T00:07:15;8.02;94.00
65573;SHT30;52214;50.940;13.996;2023-03-14T00:09:46;8.02;94.00
65573;SHT30;52214;50.940;13.996;2023-03-14T00:12:21;8.01;93.98
65573;SHT30;52214;50.940;13.996;2023-03-14T00:15:13;8.01;94.02
65573;SHT30;52214;50.940;13.996;2023-03-14T00:17:44;8.04;93.99
65573;SHT30;52214;50.940;13.996;2023-03-14T00:20:11;8.02;94.01
65573;SHT30;52214;50.940;13.996;2023-03-14T00:22:53;8.02;94.05
65573;SHT30;52214;50.940;13.996;2023-03-14T00:25:21;8.02;94.04
65573;SHT30;52214;50.940;13.996;2023-03-14T00:27:58;8.01;94.01
65573;SHT30;52214;50.940;13.996;2023-03-14T00:30:24;8.02;94.06
65573;SHT30;52214;50.940;13.996;2023-03-14T00:33:07;8.01;94.03
65573;SHT30;52214;50.940;13.996;2023-03-14T00:35:35;8.02;93.99
65573;SHT30;52214;50.940;13.996;2023-03-14T00:38:27;8.02;94.02
65573;SHT30;52214;50.940;13.996;2023-03-14T00:40:53;8.02;94.00
65573;SHT30;52214;50.940;13.996;2023-03-14T00:43:51;8.01;93.98
65573;SHT30;52214;50.940;13.996;2023-03-14T00:46:22;7.99;94.05
65573;SHT30;52214;50.940;13.996;2023-03-14T00:49:21;8.02;94.03
65573;SHT30;52214;50.940;13.996;2023-03-14T00:54:53;8.02;94.01
65573;SHT30;52214;50.940;13.996;2023-03-14T00:57:21;7.99;94.00
65573;SHT30;52214;50.940;13.996;2023-03-14T00:59:51;8.02;94.03
65573;SHT30;52214;50.940;13.996;2023-03-14T01:02:21;8.02;94.08
65573;SHT30;52214;50.940;13.996;2023-03-14T01:05:09;8.01;93.99
65573;SHT30;52214;50.940;13.996;2023-03-14T01:07:39;7.99;94.00
65573;SHT30;52214;50.940;13.996;2023-03-14T01:10:10;8.02;94.01
65573;SHT30;52214;50.940;13.996;2023-03-14T01:12:36;7.99;94.05
65573;SHT30;52214;50.940;13.996;2023-03-14T01:15:03;8.01;94.00
65573;SHT30;52214;50.940;13.996;2023-03-14T01:17:32;8.02;93.98
65573;SHT30;52214;50.940;13.996;2023-03-14T01:20:01;8.04;93.98
65573;SHT30;52214;50.940;13.996;2023-03-14T01:22:27;7.99;94.03
65573;SHT30;52214;50.940;13.996;2023-03-14T01:24:52;7.99;94.00
65573;SHT30;52214;50.940;13.996;2023-03-14T01:27:18;8.04;93.97
65573;SHT30;52214;50.940;13.996;2023-03-14T01:29:43;8.01;94.00
65573;SHT30;52214;50.940;13.996;2023-03-14T01:32:09;7.99;93.97
65573;SHT30;52214;50.940;13.996;2023-03-14T01:34:35;8.01;93.97
65573;SHT30;52214;50.940;13.996;2023-03-14T01:37:00;8.01;93.89
65573;SHT30;52214;50.940;13.996;2023-03-14T01:39:26;8.02;93.93
65573;SHT30;52214;50.940;13.996;2023-03-14T01:41:51;7.99;93.91
65573;SHT30;52214;50.940;13.996;2023-03-14T01:44:17;8.01;93.93
65573;SHT30;52214;50.940;13.996;2023-03-14T01:46:44;7.99;93.95
65573;SHT30;52214;50.940;13.996;2023-03-14T01:49:26;8.01;93.92
65573;SHT30;52214;50.940;13.996;2023-03-14T01:51:59;7.97;93.93
65573;SHT30;52214;50.940;13.996;2023-03-14T01:54:46;7.98;93.92
65573;SHT30;52214;50.940;13.996;2023-03-14T01:59:52;7.98;93.89
65573;SHT30;52214;50.940;13.996;2023-03-14T02:02:20;8.01;93.89
65573;SHT30;52214;50.940;13.996;2023-03-14T02:04:49;7.99;93.89
65573;SHT30;52214;50.940;13.996;2023-03-14T02:07:20;8.01;93.92
65573;SHT30;52214;50.940;13.996;2023-03-14T02:09:47;7.98;93.90
65573;SHT30;52214;50.940;13.996;2023-03-14T02:12:15;7.98;93.87
65573;SHT30;52214;50.940;13.996;2023-03-14T02:14:42;7.99;93.89
65573;SHT30;52214;50.940;13.996;2023-03-14T02:17:14;7.97;93.89
65573;SHT30;52214;50.940;13.996;2023-03-14T02:22:10;7.98;93.87
65573;SHT30;52214;50.940;13.996;2023-03-14T02:27:21;7.98;93.87
65573;SHT30;52214;50.940;13.996;2023-03-14T02:32:16;7.97;93.87
65573;SHT30;52214;50.940;13.996;2023-03-14T02:34:46;7.97;93.85
65573;SHT30;52214;50.940;13.996;2023-03-14T02:37:16;7.95;93.86
65573;SHT30;52214;50.940;13.996;2023-03-14T02:39:44;7.98;93.85
65573;SHT30;52214;50.940;13.996;2023-03-14T02:42:12;7.97;93.79
65573;SHT30;52214;50.940;13.996;2023-03-14T02:45:25;7.98;93.77
65573;SHT30;52214;50.940;13.996;2023-03-14T02:47:51;7.95;93.83
65573;SHT30;52214;50.940;13.996;2023-03-14T02:50:39;7.97;93.83
65573;SHT30;52214;50.940;13.996;2023-03-14T02:53:05;7.95;93.80
65573;SHT30;52214;50.940;13.996;2023-03-14T02:55:31;7.95;93.78
65573;SHT30;52214;50.940;13.996;2023-03-14T02:58:03;7.95;93.79
65573;SHT30;52214;50.940;13.996;2023-03-14T03:00:30;7.95;93.81
65573;SHT30;52214;50.940;13.996;2023-03-14T03:02:56;7.95;93.81
65573;SHT30;52214;50.940;13.996;2023-03-14T03:05:21;7.95;93.82
65573;SHT30;52214;50.940;13.996;2023-03-14T03:07:51;7.92;93.83
65573;SHT30;52214;50.940;13.996;2023-03-14T03:10:16;7.94;93.75
65573;SHT30;52214;50.940;13.996;2023-03-14T03:12:42;7.97;93.76
65573;SHT30;52214;50.940;13.996;2023-03-14T03:15:09;7.95;93.74
65573;SHT30;52214;50.940;13.996;2023-03-14T03:17:35;7.92;93.75
65573;SHT30;52214;50.940;13.996;2023-03-14T03:20:01;7.91;93.68
65573;SHT30;52214;50.940;13.996;2023-03-14T03:22:26;7.94;93.72
65573;SHT30;52214;50.940;13.996;2023-03-14T03:24:52;7.94;93.72
65573;SHT30;52214;50.940;13.996;2023-03-14T03:27:18;7.92;93.72
65573;SHT30;52214;50.940;13.996;2023-03-14T03:29:43;7.91;93.72
65573;SHT30;52214;50.940;13.996;2023-03-14T03:32:09;7.91;93.69
65573;SHT30;52214;50.940;13.996;2023-03-14T03:34:34;7.91;93.67
65573;SHT30;52214;50.940;13.996;2023-03-14T03:37:00;7.92;93.68
65573;SHT30;52214;50.940;13.996;2023-03-14T03:39:26;7.92;93.67
65573;SHT30;52214;50.940;13.996;2023-03-14T03:41:51;7.90;93.66
65573;SHT30;52214;50.940;13.996;2023-03-14T03:44:17;7.92;93.65
65573;SHT30;52214;50.940;13.996;2023-03-14T03:46:42;7.91;93.66
65573;SHT30;52214;50.940;13.996;2023-03-14T03:49:08;7.92;93.65
65573;SHT30;52214;50.940;13.996;2023-03-14T03:51:34;7.91;93.64
65573;SHT30;52214;50.940;13.996;2023-03-14T03:53:59;7.88;93.67
65573;SHT30;52214;50.940;13.996;2023-03-14T03:56:25;7.90;93.65
65573;SHT30;52214;50.940;13.996;2023-03-14T03:58:50;7.88;93.72
65573;SHT30;52214;50.940;13.996;2023-03-14T04:01:16;7.88;93.76
65573;SHT30;52214;50.940;13.996;2023-03-14T04:03:41;7.87;93.71
65573;SHT30;52214;50.940;13.996;2023-03-14T04:06:10;7.90;93.73
65573;SHT30;52214;50.940;13.996;2023-03-14T04:08:36;7.88;93.76
65573;SHT30;52214;50.940;13.996;2023-03-14T04:11:03;7.90;93.76
65573;SHT30;52214;50.940;13.996;2023-03-14T04:13:29;7.88;93.78
65573;SHT30;52214;50.940;13.996;2023-03-14T04:15:56;7.88;93.75
65573;SHT30;52214;50.940;13.996;2023-03-14T04:18:22;7.85;93.75
65573;SHT30;52214;50.940;13.996;2023-03-14T04:20:56;7.88;93.78
65573;SHT30;52214;50.940;13.996;2023-03-14T04:23:23;7.87;93.79
65573;SHT30;52214;50.940;13.996;2023-03-14T04:25:53;7.87;93.77
65573;SHT30;52214;50.940;13.996;2023-03-14T04:28:19;7.81;93.82
65573;SHT30;52214;50.940;13.996;2023-03-14T04:30:44;7.85;93.75
65573;SHT30;52214;50.940;13.996;2023-03-14T04:33:10;7.87;93.79
65573;SHT30;52214;50.940;13.996;2023-03-14T04:35:38;7.85;93.80
65573;SHT30;52214;50.940;13.996;2023-03-14T04:38:04;7.84;93.76
65573;SHT30;52214;50.940;13.996;2023-03-14T04:40:30;7.85;93.77
65573;SHT30;52214;50.940;13.996;2023-03-14T04:42:55;7.83;93.69
65573;SHT30;52214;50.940;13.996;2023-03-14T04:45:21;7.81;93.72
65573;SHT30;52214;50.940;13.996;2023-03-14T04:47:46;7.84;93.71
65573;SHT30;52214;50.940;13.996;2023-03-14T04:50:12;7.84;93.66
65573;SHT30;52214;50.940;13.996;2023-03-14T04:52:38;7.83;93.68
65573;SHT30;52214;50.940;13.996;2023-03-14T04:55:04;7.84;93.64
65573;SHT30;52214;50.940;13.996;2023-03-14T04:57:29;7.83;93.64
65573;SHT30;52214;50.940;13.996;2023-03-14T04:59:55;7.83;93.64
65573;SHT30;52214;50.940;13.996;2023-03-14T05:02:21;7.80;93.62
65573;SHT30;52214;50.940;13.996;2023-03-14T05:04:46;7.83;93.67
65573;SHT30;52214;50.940;13.996;2023-03-14T05:07:12;7.80;93.67
65573;SHT30;52214;50.940;13.996;2023-03-14T05:09:38;7.78;93.66
65573;SHT30;52214;50.940;13.996;2023-03-14T05:12:03;7.78;93.65
65573;SHT30;52214;50.940;13.996;2023-03-14T05:14:30;7.80;93.63
65573;SHT30;52214;50.940;13.996;2023-03-14T05:16:56;7.78;93.65
65573;SHT30;52214;50.940;13.996;2023-03-14T05:19:21;7.80;93.60
65573;SHT30;52214;50.940;13.996;2023-03-14T05:21:47;7.80;93.61
65573;SHT30;52214;50.940;13.996;2023-03-14T05:24:12;7.80;93.58
65573;SHT30;52214;50.940;13.996;2023-03-14T05:26:38;7.77;93.58
65573;SHT30;52214;50.940;13.996;2023-03-14T05:29:04;7.80;93.62
65573;SHT30;52214;50.940;13.996;2023-03-14T05:31:29;7.80;93.60
65573;SHT30;52214;50.940;13.996;2023-03-14T05:33:55;7.75;93.61
65573;SHT30;52214;50.940;13.996;2023-03-14T05:36:21;7.81;93.57
65573;SHT30;52214;50.940;13.996;2023-03-14T05:38:47;7.75;93.61
65573;SHT30;52214;50.940;13.996;2023-03-14T05:41:13;7.77;93.60
65573;SHT30;52214;50.940;13.996;2023-03-14T05:43:38;7.78;93.61
65573;SHT30;52214;50.940;13.996;2023-03-14T05:46:04;7.77;93.60
65573;SHT30;52214;50.940;13.996;2023-03-14T05:48:30;7.75;93.59
65573;SHT30;52214;50.940;13.996;2023-03-14T05:50:57;7.77;93.59
65573;SHT30;52214;50.940;13.996;2023-03-14T05:53:25;7.74;93.61
65573;SHT30;52214;50.940;13.996;2023-03-14T05:55:54;7.74;93.59
65573;SHT30;52214;50.940;13.996;2023-03-14T05:58:20;7.74;93.58
65573;SHT30;52214;50.940;13.996;2023-03-14T06:00:47;7.75;93.60
65573;SHT30;52214;50.940;13.996;2023-03-14T06:03:13;7.77;93.55
65573;SHT30;52214;50.940;13.996;2023-03-14T06:05:39;7.75;93.54
65573;SHT30;52214;50.940;13.996;2023-03-14T06:08:05;7.73;93.58
65573;SHT30;52214;50.940;13.996;2023-03-14T06:10:30;7.75;93.60
65573;SHT30;52214;50.940;13.996;2023-03-14T06:12:56;7.74;93.59
65573;SHT30;52214;50.940;13.996;2023-03-14T06:15:22;7.75;93.62
65573;SHT30;52214;50.940;13.996;2023-03-14T06:17:48;7.77;93.58
65573;SHT30;52214;50.940;13.996;2023-03-14T06:20:14;7.75;93.58
65573;SHT30;52214;50.940;13.996;2023-03-14T06:22:40;7.75;93.61
65573;SHT30;52214;50.940;13.996;2023-03-14T06:25:09;7.74;93.61
65573;SHT30;52214;50.940;13.996;2023-03-14T06:27:34;7.74;93.58
65573;SHT30;52214;50.940;13.996;2023-03-14T06:30:01;7.74;93.56
65573;SHT30;52214;50.940;13.996;2023-03-14T06:32:26;7.74;93.54
65573;SHT30;52214;50.940;13.996;2023-03-14T06:34:52;7.73;93.59
65573;SHT30;52214;50.940;13.996;2023-03-14T06:37:18;7.74;93.56
65573;SHT30;52214;50.940;13.996;2023-03-14T06:39:44;7.74;93.57
65573;SHT30;52214;50.940;13.996;2023-03-14T06:42:10;7.74;93.59
65573;SHT30;52214;50.940;13.996;2023-03-14T06:44:36;7.73;93.56
65573;SHT30;52214;50.940;13.996;2023-03-14T06:47:02;7.74;93.59
65573;SHT30;52214;50.940;13.996;2023-03-14T06:49:27;7.73;93.53
65573;SHT30;52214;50.940;13.996;2023-03-14T06:51:53;7.71;93.56
65573;SHT30;52214;50.940;13.996;2023-03-14T06:54:18;7.71;93.57
65573;SHT30;52214;50.940;13.996;2023-03-14T06:56:44;7.74;93.57
65573;SHT30;52214;50.940;13.996;2023-03-14T06:59:10;7.73;93.54
65573;SHT30;52214;50.940;13.996;2023-03-14T07:01:35;7.74;93.52
65573;SHT30;52214;50.940;13.996;2023-03-14T07:04:02;7.74;93.53
65573;SHT30;52214;50.940;13.996;2023-03-14T07:06:27;7.71;93.53
65573;SHT30;52214;50.940;13.996;2023-03-14T07:08:55;7.73;93.52
65573;SHT30;52214;50.940;13.996;2023-03-14T07:11:22;7.74;93.49
65573;SHT30;52214;50.940;13.996;2023-03-14T07:13:47;7.74;93.52
65573;SHT30;52214;50.940;13.996;2023-03-14T07:16:13;7.74;93.49
65573;SHT30;52214;50.940;13.996;2023-03-14T07:18:39;7.73;93.49
65573;SHT30;52214;50.940;13.996;2023-03-14T07:21:06;7.71;93.50
65573;SHT30;52214;50.940;13.996;2023-03-14T07:23:32;7.73;93.51
65573;SHT30;52214;50.940;13.996;2023-03-14T07:25:58;7.75;93.51
65573;SHT30;52214;50.940;13.996;2023-03-14T07:28:24;7.77;93.51
65573;SHT30;52214;50.940;13.996;2023-03-14T07:30:49;7.73;93.49
65573;SHT30;52214;50.940;13.996;2023-03-14T07:33:18;7.74;93.48
65573;SHT30;52214;50.940;13.996;2023-03-14T07:35:44;7.71;93.51
65573;SHT30;52214;50.940;13.996;2023-03-14T07:38:09;7.75;93.46
65573;SHT30;52214;50.940;13.996;2023-03-14T07:40:35;7.74;93.51
65573;SHT30;52214;50.940;13.996;2023-03-14T07:43:00;7.74;93.50
65573;SHT30;52214;50.940;13.996;2023-03-14T07:45:26;7.74;93.49
65573;SHT30;52214;50.940;13.996;2023-03-14T07:47:51;7.77;93.53
65573;SHT30;52214;50.940;13.996;2023-03-14T07:50:17;7.77;93.51
65573;SHT30;52214;50.940;13.996;2023-03-14T07:52:44;7.77;93.51
65573;SHT30;52214;50.940;13.996;2023-03-14T07:55:10;7.75;93.49
65573;SHT30;52214;50.940;13.996;2023-03-14T07:57:35;7.78;93.43
65573;SHT30;52214;50.940;13.996;2023-03-14T08:00:01;7.78;93.51
65573;SHT30;52214;50.940;13.996;2023-03-14T08:02:28;7.78;93.46
65573;SHT30;52214;50.940;13.996;2023-03-14T08:04:54;7.78;93.46
65573;SHT30;52214;50.940;13.996;2023-03-14T08:07:19;7.80;93.45
65573;SHT30;52214;50.940;13.996;2023-03-14T08:09:45;7.78;93.44
65573;SHT30;52214;50.940;13.996;2023-03-14T08:12:11;7.83;93.43
65573;SHT30;52214;50.940;13.996;2023-03-14T08:14:36;7.80;93.42
65573;SHT30;52214;50.940;13.996;2023-03-14T08:17:02;7.85;93.34
65573;SHT30;52214;50.940;13.996;2023-03-14T08:19:27;7.87;93.29
65573;SHT30;52214;50.940;13.996;2023-03-14T08:21:53;7.88;93.28
65573;SHT30;52214;50.940;13.996;2023-03-14T08:24:19;7.92;93.21
65573;SHT30;52214;50.940;13.996;2023-03-14T08:26:45;7.95;93.18
65573;SHT30;52214;50.940;13.996;2023-03-14T08:29:10;7.99;93.18
65573;SHT30;52214;50.940;13.996;2023-03-14T08:31:38;7.97;93.16
65573;SHT30;52214;50.940;13.996;2023-03-14T08:34:03;7.99;93.20
65573;SHT30;52214;50.940;13.996;2023-03-14T08:36:29;7.99;93.20
65573;SHT30;52214;50.940;13.996;2023-03-14T08:38:57;8.01;93.17
65573;SHT30;52214;50.940;13.996;2023-03-14T08:41:23;8.04;93.15
65573;SHT30;52214;50.940;13.996;2023-03-14T08:43:49;8.02;93.18
65573;SHT30;52214;50.940;13.996;2023-03-14T08:46:14;8.04;93.19
65573;SHT30;52214;50.940;13.996;2023-03-14T08:48:40;8.01;93.19
65573;SHT30;52214;50.940;13.996;2023-03-14T08:51:10;8.01;93.20
65573;SHT30;52214;50.940;13.996;2023-03-14T08:53:38;8.05;93.23
65573;SHT30;52214;50.940;13.996;2023-03-14T08:56:04;8.05;93.21
65573;SHT30;52214;50.940;13.996;2023-03-14T08:58:32;8.11;93.06
65573;SHT30;52214;50.940;13.996;2023-03-14T09:00:58;8.15;92.94
65573;SHT30;52214;50.940;13.996;2023-03-14T09:03:25;8.21;92.64
65573;SHT30;52214;50.940;13.996;2023-03-14T09:05:51;8.26;92.39
65573;SHT30;52214;50.940;13.996;2023-03-14T09:08:17;8.33;92.31
65573;SHT30;52214;50.940;13.996;2023-03-14T09:10:42;8.36;92.08
65573;SHT30;52214;50.940;13.996;2023-03-14T09:13:08;8.36;91.85
65573;SHT30;52214;50.940;13.996;2023-03-14T09:15:34;8.43;91.78
65573;SHT30;52214;50.940;13.996;2023-03-14T09:18:00;8.45;91.73
65573;SHT30;52214;50.940;13.996;2023-03-14T09:20:26;8.49;91.68
65573;SHT30;52214;50.940;13.996;2023-03-14T09:22:52;8.52;91.75
65573;SHT30;52214;50.940;13.996;2023-03-14T09:25:17;8.56;91.66
65573;SHT30;52214;50.940;13.996;2023-03-14T09:27:43;8.63;91.69
65573;SHT30;52214;50.940;13.996;2023-03-14T09:30:09;8.60;91.70
65573;SHT30;52214;50.940;13.996;2023-03-14T09:32:36;8.61;91.63
65573;SHT30;52214;50.940;13.996;2023-03-14T09:35:02;8.63;91.68
65573;SHT30;52214;50.940;13.996;2023-03-14T09:37:28;8.64;91.63
65573;SHT30;52214;50.940;13.996;2023-03-14T09:39:54;8.64;91.71
65573;SHT30;52214;50.940;13.996;2023-03-14T09:42:24;8.68;91.72
65573;SHT30;52214;50.940;13.996;2023-03-14T09:44:59;8.71;91.76
65573;SHT30;52214;50.940;13.996;2023-03-14T09:47:26;8.78;91.77
65573;SHT30;52214;50.940;13.996;2023-03-14T09:49:53;8.83;91.76
65573;SHT30;52214;50.940;13.996;2023-03-14T09:52:24;8.85;91.74
65573;SHT30;52214;50.940;13.996;2023-03-14T09:54:54;8.84;91.79
65573;SHT30;52214;50.940;13.996;2023-03-14T09:57:24;8.85;91.68
65573;SHT30;52214;50.940;13.996;2023-03-14T09:59:53;8.91;91.72
65573;SHT30;52214;50.940;13.996;2023-03-14T10:02:26;8.85;91.77
65573;SHT30;52214;50.940;13.996;2023-03-14T10:04:54;8.87;91.97
65573;SHT30;52214;50.940;13.996;2023-03-14T10:07:31;8.84;91.96
65573;SHT30;52214;50.940;13.996;2023-03-14T10:09:59;8.85;92.12
65573;SHT30;52214;50.940;13.996;2023-03-14T10:12:36;8.84;92.26
65573;SHT30;52214;50.940;13.996;2023-03-14T10:15:07;8.84;92.39
65573;SHT30;52214;50.940;13.996;2023-03-14T10:18:00;8.85;92.43
65573;SHT30;52214;50.940;13.996;2023-03-14T10:20:47;8.89;92.44
65573;SHT30;52214;50.940;13.996;2023-03-14T10:25:45;8.95;92.35
65573;SHT30;52214;50.940;13.996;2023-03-14T10:28:26;8.98;92.40
65573;SHT30;52214;50.940;13.996;2023-03-14T10:30:53;9.02;92.35
65573;SHT30;52214;50.940;13.996;2023-03-14T10:33:20;9.02;92.31
65573;SHT30;52214;50.940;13.996;2023-03-14T10:36:14;9.05;92.38
65573;SHT30;52214;50.940;13.996;2023-03-14T10:38:41;9.05;92.49
65573;SHT30;52214;50.940;13.996;2023-03-14T10:41:20;9.04;92.57
65573;SHT30;52214;50.940;13.996;2023-03-14T10:43:55;9.00;92.75
65573;SHT30;52214;50.940;13.996;2023-03-14T10:46:25;9.00;92.83
65573;SHT30;52214;50.940;13.996;2023-03-14T10:48:53;8.97;92.87
65573;SHT30;52214;50.940;13.996;2023-03-14T10:51:28;9.00;93.00
65573;SHT30;52214;50.940;13.996;2023-03-14T10:54:15;8.97;93.07
65573;SHT30;52214;50.940;13.996;2023-03-14T10:56:44;9.01;93.12
65573;SHT30;52214;50.940;13.996;2023-03-14T10:59:13;9.00;93.16
65573;SHT30;52214;50.940;13.996;2023-03-14T11:07:27;9.01;93.24
65573;SHT30;52214;50.940;13.996;2023-03-14T11:10:18;9.02;93.28
65573;SHT30;52214;50.940;13.996;2023-03-14T11:13:00;9.08;93.28
65573;SHT30;52214;50.940;13.996;2023-03-14T11:26:55;9.28;93.13
65573;SHT30;52214;50.940;13.996;2023-03-14T11:29:39;9.32;93.17
65573;SHT30;52214;50.940;13.996;2023-03-14T11:32:19;9.29;93.22
65573;SHT30;52214;50.940;13.996;2023-03-14T11:34:52;9.28;93.29
65573;SHT30;52214;50.940;13.996;2023-03-14T11:37:33;9.26;93.32
65573;SHT30;52214;50.940;13.996;2023-03-14T11:42:32;9.28;93.41
65573;SHT30;52214;50.940;13.996;2023-03-14T11:45:00;9.25;93.48
65573;SHT30;52214;50.940;13.996;2023-03-14T11:47:32;9.23;93.57
65573;SHT30;52214;50.940;13.996;2023-03-14T11:50:23;9.26;93.62
65573;SHT30;52214;50.940;13.996;2023-03-14T11:53:01;9.23;93.64
65573;SHT30;52214;50.940;13.996;2023-03-14T11:55:33;9.26;93.65
65573;SHT30;52214;50.940;13.996;2023-03-14T11:58:32;9.23;93.69
65573;SHT30;52214;50.940;13.996;2023-03-14T12:01:05;9.23;93.71
65573;SHT30;52214;50.940;13.996;2023-03-14T12:03:54;9.23;93.76
65573;SHT30;52214;50.940;13.996;2023-03-14T12:06:28;9.22;93.78
65573;SHT30;52214;50.940;13.996;2023-03-14T12:08:58;9.25;93.74
65573;SHT30;52214;50.940;13.996;2023-03-14T12:14:18;9.23;93.81
65573;SHT30;52214;50.940;13.996;2023-03-14T12:16:47;9.25;93.81
65573;SHT30;52214;50.940;13.996;2023-03-14T12:19:26;9.25;93.83
65573;SHT30;52214;50.940;13.996;2023-03-14T12:22:25;9.25;93.83
65573;SHT30;52214;50.940;13.996;2023-03-14T12:25:00;9.26;93.87
65573;SHT30;52214;50.940;13.996;2023-03-14T12:30:28;9.28;93.93
65573;SHT30;52214;50.940;13.996;2023-03-14T12:35:45;9.29;93.97
65573;SHT30;52214;50.940;13.996;2023-03-14T12:50:47;9.32;94.01
65573;SHT30;52214;50.940;13.996;2023-03-14T12:53:50;9.30;94.03
65573;SHT30;52214;50.940;13.996;2023-03-14T13:02:23;9.39;94.03
65573;SHT30;52214;50.940;13.996;2023-03-14T13:05:02;9.39;94.01
65573;SHT30;52214;50.940;13.996;2023-03-14T13:10:29;9.46;93.92
65573;SHT30;52214;50.940;13.996;2023-03-14T13:13:01;9.47;93.91
65573;SHT30;52214;50.940;13.996;2023-03-14T13:15:39;9.50;93.93
65573;SHT30;52214;50.940;13.996;2023-03-14T13:18:19;9.50;93.94
65573;SHT30;52214;50.940;13.996;2023-03-14T13:20:53;9.49;93.93
65573;SHT30;52214;50.940;13.996;2023-03-14T13:23:26;9.50;93.94
65573;SHT30;52214;50.940;13.996;2023-03-14T13:25:52;9.51;93.90
65573;SHT30;52214;50.940;13.996;2023-03-14T13:28:19;9.54;93.98
65573;SHT30;52214;50.940;13.996;2023-03-14T13:30:47;9.54;94.00
65573;SHT30;52214;50.940;13.996;2023-03-14T13:33:19;9.57;94.04
65573;SHT30;52214;50.940;13.996;2023-03-14T13:35:48;9.54;94.05
65573;SHT30;52214;50.940;13.996;2023-03-14T13:38:19;9.53;94.07
65573;SHT30;52214;50.940;13.996;2023-03-14T13:40:46;9.54;94.12
65573;SHT30;52214;50.940;13.996;2023-03-14T13:43:19;9.56;94.10
65573;SHT30;52214;50.940;13.996;2023-03-14T13:45:55;9.54;94.16
65573;SHT30;52214;50.940;13.996;2023-03-14T13:48:26;9.53;94.18
65573;SHT30;52214;50.940;13.996;2023-03-14T13:53:47;9.51;94.21
65573;SHT30;52214;50.940;13.996;2023-03-14T13:56:17;9.50;94.26
65573;SHT30;52214;50.940;13.996;2023-03-14T13:58:43;9.51;94.28
65573;SHT30;52214;50.940;13.996;2023-03-14T14:01:18;9.51;94.27
65573;SHT30;52214;50.940;13.996;2023-03-14T14:03:53;9.50;94.31
65573;SHT30;52214;50.940;13.996;2023-03-14T14:06:37;9.47;94.34
65573;SHT30;52214;50.940;13.996;2023-03-14T14:09:16;9.50;94.36
65573;SHT30;52214;50.940;13.996;2023-03-14T14:11:44;9.51;94.36
65573;SHT30;52214;50.940;13.996;2023-03-14T14:14:21;9.49;94.37
65573;SHT30;52214;50.940;13.996;2023-03-14T14:16:47;9.50;94.40
65573;SHT30;52214;50.940;13.996;2023-03-14T14:19:15;9.47;94.40
65573;SHT30;52214;50.940;13.996;2023-03-14T14:21:42;9.50;94.41
65573;SHT30;52214;50.940;13.996;2023-03-14T14:24:17;9.51;94.40
65573;SHT30;52214;50.940;13.996;2023-03-14T14:26:50;9.49;94.36
65573;SHT30;52214;50.940;13.996;2023-03-14T14:29:32;9.51;94.36
65573;SHT30;52214;50.940;13.996;2023-03-14T14:32:22;9.49;94.32
65573;SHT30;52214;50.940;13.996;2023-03-14T14:37:32;9.50;94.42
65573;SHT30;52214;50.940;13.996;2023-03-14T14:40:14;9.51;94.41
65573;SHT30;52214;50.940;13.996;2023-03-14T14:42:44;9.49;94.34
65573;SHT30;52214;50.940;13.996;2023-03-14T14:45:18;9.50;94.34
65573;SHT30;52214;50.940;13.996;2023-03-14T14:47:50;9.50;94.29
65573;SHT30;52214;50.940;13.996;2023-03-14T14:50:28;9.47;94.31
65573;SHT30;52214;50.940;13.996;2023-03-14T14:55:48;9.49;94.34
65573;SHT30;52214;50.940;13.996;2023-03-14T15:03:36;9.47;94.27
65573;SHT30;52214;50.940;13.996;2023-03-14T15:06:03;9.47;94.28
65573;SHT30;52214;50.940;13.996;2023-03-14T15:08:30;9.46;94.28
65573;SHT30;52214;50.940;13.996;2023-03-14T15:10:58;9.44;94.26
65573;SHT30;52214;50.940;13.996;2023-03-14T15:13:26;9.44;94.24
65573;SHT30;52214;50.940;13.996;2023-03-14T15:15:53;9.43;94.25
65573;SHT30;52214;50.940;13.996;2023-03-14T15:18:25;9.42;94.30
65573;SHT30;52214;50.940;13.996;2023-03-14T15:20:53;9.44;94.24
65573;SHT30;52214;50.940;13.996;2023-03-14T15:23:25;9.44;94.16
65573;SHT30;52214;50.940;13.996;2023-03-14T15:25:51;9.42;94.12
65573;SHT30;52214;50.940;13.996;2023-03-14T15:28:23;9.42;94.19
65573;SHT30;52214;50.940;13.996;2023-03-14T15:30:52;9.42;94.18
65573;SHT30;52214;50.940;13.996;2023-03-14T15:33:26;9.39;94.18
65573;SHT30;52214;50.940;13.996;2023-03-14T15:35:56;9.40;94.20
65573;SHT30;52214;50.940;13.996;2023-03-14T15:38:23;9.38;94.18
65573;SHT30;52214;50.940;13.996;2023-03-14T15:40:52;9.33;94.04
65573;SHT30;52214;50.940;13.996;2023-03-14T15:43:24;9.33;93.80
65573;SHT30;52214;50.940;13.996;2023-03-14T15:45:54;9.33;93.74
65573;SHT30;52214;50.940;13.996;2023-03-14T15:48:25;9.30;93.63
65573;SHT30;52214;50.940;13.996;2023-03-14T15:50:53;9.28;93.56
65573;SHT30;52214;50.940;13.996;2023-03-14T15:53:20;9.26;93.13
65573;SHT30;52214;50.940;13.996;2023-03-14T15:55:47;9.25;93.20
65573;SHT30;52214;50.940;13.996;2023-03-14T15:58:17;9.23;93.28
65573;SHT30;52214;50.940;13.996;2023-03-14T16:00:44;9.21;93.24
65573;SHT30;52214;50.940;13.996;2023-03-14T16:03:09;9.21;93.22
65573;SHT30;52214;50.940;13.996;2023-03-14T16:05:38;9.19;93.24
65573;SHT30;52214;50.940;13.996;2023-03-14T16:08:07;9.19;93.26
65573;SHT30;52214;50.940;13.996;2023-03-14T16:10:33;9.18;93.30
65573;SHT30;52214;50.940;13.996;2023-03-14T16:12:59;9.14;93.31
65573;SHT30;52214;50.940;13.996;2023-03-14T16:15:27;9.11;93.29
65573;SHT30;52214;50.940;13.996;2023-03-14T16:17:54;9.11;93.34
65573;SHT30;52214;50.940;13.996;2023-03-14T16:20:21;9.11;93.35
65573;SHT30;52214;50.940;13.996;2023-03-14T16:22:47;9.08;93.33
65573;SHT30;52214;50.940;13.996;2023-03-14T16:25:14;9.05;93.35
65573;SHT30;52214;50.940;13.996;2023-03-14T16:27:40;9.07;93.37
65573;SHT30;52214;50.940;13.996;2023-03-14T16:30:10;9.04;93.38
65573;SHT30;52214;50.940;13.996;2023-03-14T16:32:36;9.01;93.41
65573;SHT30;52214;50.940;13.996;2023-03-14T16:35:02;9.02;93.37
65573;SHT30;52214;50.940;13.996;2023-03-14T16:37:28;9.01;93.42
65573;SHT30;52214;50.940;13.996;2023-03-14T16:39:54;9.00;93.45
65573;SHT30;52214;50.940;13.996;2023-03-14T16:42:20;8.97;93.45
65573;SHT30;52214;50.940;13.996;2023-03-14T16:44:46;8.94;93.44
65573;SHT30;52214;50.940;13.996;2023-03-14T16:47:12;8.94;93.48
65573;SHT30;52214;50.940;13.996;2023-03-14T16:49:39;8.91;93.51
65573;SHT30;52214;50.940;13.996;2023-03-14T16:52:06;8.91;93.45
65573;SHT30;52214;50.940;13.996;2023-03-14T16:54:32;8.89;93.45
65573;SHT30;52214;50.940;13.996;2023-03-14T16:56:58;8.89;93.43
65573;SHT30;52214;50.940;13.996;2023-03-14T16:59:24;8.87;93.43
65573;SHT30;52214;50.940;13.996;2023-03-14T17:01:54;8.85;93.44
65573;SHT30;52214;50.940;13.996;2023-03-14T17:04:21;8.85;93.44